createdAt,value
2023-03-16T06:00:47.602Z,-1.48
2023-03-16T06:03:51.877Z,-1.36
2023-03-16T06:06:54.448Z,-1.24
2023-03-16T06:09:56.924Z,-1.15
2023-03-16T06:13:00.020Z,-0.16
2023-03-16T06:16:06.204Z,1.15
2023-03-16T06:19:08.683Z,2.06
2023-03-16T06:22:11.530Z,2.65
2023-03-16T06:25:14.951Z,3.37
2023-03-16T06:28:18.335Z,3.66
2023-03-16T06:31:22.127Z,4.11
2023-03-16T06:34:24.577Z,4.45
2023-03-16T06:37:27.091Z,4.58
2023-03-16T06:40:30.389Z,4.76
2023-03-16T06:43:33.275Z,4.85
2023-03-16T06:46:37.088Z,4.88
2023-03-16T06:49:39.870Z,4.62
2023-03-16T06:52:42.510Z,4.46
2023-03-16T06:55:44.961Z,4.34
2023-03-16T06:58:47.448Z,3.96
2023-03-16T07:01:51.464Z,3.36
2023-03-16T07:04:54.036Z,3.47
2023-03-16T07:07:56.621Z,3.37
2023-03-16T07:10:59.219Z,3.26
2023-03-16T07:14:02.452Z,3.46
2023-03-16T07:17:06.542Z,3.71
2023-03-16T07:20:12.730Z,3.82
2023-03-16T07:23:15.339Z,4.01
2023-03-16T07:26:18.721Z,4.14
2023-03-16T07:29:21.966Z,4.01
2023-03-16T07:32:25.878Z,4.24
2023-03-16T07:35:28.413Z,4.38
2023-03-16T07:38:32.430Z,4.36
2023-03-16T07:41:35.049Z,4.62
2023-03-16T07:44:37.510Z,4.80
2023-03-16T07:47:41.683Z,4.94
2023-03-16T07:50:44.225Z,5.24
2023-03-16T07:53:46.683Z,5.26
2023-03-16T07:56:49.966Z,5.55
2023-03-16T07:59:52.723Z,5.69
2023-03-16T08:02:57.558Z,5.50
2023-03-16T08:06:00.246Z,5.88
2023-03-16T08:09:02.767Z,6.15
2023-03-16T08:12:06.681Z,6.25
2023-03-16T08:15:10.185Z,6.64
2023-03-16T08:18:14.683Z,7.03
2023-03-16T08:21:17.774Z,7.23
2023-03-16T08:24:20.444Z,7.36
2023-03-16T08:27:23.043Z,7.24
2023-03-16T08:30:27.101Z,7.05
2023-03-16T08:33:31.091Z,7.39
2023-03-16T08:36:33.599Z,7.60
2023-03-16T08:39:36.067Z,7.44
2023-03-16T08:42:38.789Z,7.81
2023-03-16T08:45:42.595Z,7.70
2023-03-16T08:48:46.413Z,7.66
2023-03-16T08:51:48.912Z,7.95
2023-03-16T08:55:02.282Z,8.14
2023-03-16T08:58:06.251Z,8.37
2023-03-16T09:01:09.425Z,9.02
2023-03-16T09:04:13.312Z,9.13
2023-03-16T09:07:15.812Z,9.10
2023-03-16T09:10:18.964Z,9.14
2023-03-16T09:13:21.439Z,9.51
2023-03-16T09:16:25.628Z,9.27
2023-03-16T09:19:47.859Z,8.28
2023-03-16T09:22:52.811Z,9.19
2023-03-16T09:25:59.295Z,9.67
2023-03-16T09:29:02.196Z,9.84
2023-03-16T09:32:05.357Z,10.17
2023-03-16T09:35:10.117Z,10.05
2023-03-16T09:38:12.657Z,9.98
2023-03-16T09:41:32.055Z,9.48
2023-03-16T09:44:44.090Z,9.54
2023-03-16T09:47:48.696Z,9.77
2023-03-16T09:50:55.670Z,9.98
2023-03-16T09:54:02.902Z,10.11
2023-03-16T09:57:06.790Z,10.55
2023-03-16T10:00:18.530Z,10.64
2023-03-16T10:03:37.234Z,10.69
2023-03-16T10:06:49.496Z,10.11
2023-03-16T10:09:58.301Z,10.14
2023-03-16T10:13:02.413Z,10.43
2023-03-16T10:16:10.800Z,10.61
2023-03-16T10:19:18.601Z,10.58
2023-03-16T10:22:26.460Z,11.30
2023-03-16T10:25:36.408Z,11.01
2023-03-16T10:28:39.570Z,11.06
2023-03-16T10:31:42.888Z,11.22
2023-03-16T10:34:49.541Z,10.11
2023-03-16T10:37:53.876Z,9.90
2023-03-16T10:40:57.841Z,11.12
2023-03-16T10:44:07.366Z,10.81
2023-03-16T10:47:20.218Z,10.41
2023-03-16T10:50:27.763Z,10.63
2023-03-16T10:53:35.945Z,10.14
2023-03-16T10:56:38.461Z,10.49
2023-03-16T10:59:40.967Z,10.93
2023-03-16T11:02:44.435Z,10.75
2023-03-16T11:05:47.232Z,11.07
2023-03-16T11:08:53.994Z,11.23
2023-03-16T11:11:56.508Z,10.96
2023-03-16T11:15:04.705Z,11.26
2023-03-16T11:18:24.013Z,10.68
2023-03-16T11:21:41.110Z,10.52
2023-03-16T11:24:51.069Z,10.82
2023-03-16T11:27:57.706Z,10.30
2023-03-16T11:31:11.955Z,10.65
2023-03-16T11:34:17.836Z,11.50
2023-03-16T11:37:33.859Z,12.04
2023-03-16T11:40:50.207Z,11.37
2023-03-16T11:43:54.311Z,11.50
2023-03-16T11:47:06.977Z,11.76
2023-03-16T11:50:18.604Z,11.58
2023-03-16T11:53:33.942Z,11.50
2023-03-16T11:56:43.189Z,12.14
2023-03-16T12:00:04.009Z,12.24
2023-03-16T12:03:31.150Z,12.10
2023-03-16T12:06:48.457Z,12.34
2023-03-16T12:10:23.748Z,11.93
2023-03-16T12:13:42.116Z,11.23
2023-03-16T12:16:51.301Z,11.21
2023-03-16T12:19:58.822Z,10.45
2023-03-16T12:23:07.796Z,10.47
2023-03-16T12:26:12.446Z,10.97
2023-03-16T12:29:23.965Z,11.51
2023-03-16T12:32:36.829Z,12.52
2023-03-16T12:35:47.697Z,12.47
2023-03-16T12:38:54.417Z,12.55
2023-03-16T12:42:10.910Z,12.61
2023-03-16T12:45:19.144Z,12.74
2023-03-16T12:48:28.141Z,13.01
2023-03-16T12:51:34.669Z,12.44
2023-03-16T12:54:38.920Z,12.16
2023-03-16T12:57:42.533Z,12.64
2023-03-16T13:00:57.559Z,12.70
2023-03-16T13:04:04.020Z,12.82
2023-03-16T13:07:09.170Z,12.89
2023-03-16T13:10:15.662Z,12.67
2023-03-16T13:13:18.598Z,12.20
2023-03-16T13:16:28.310Z,12.29
2023-03-16T13:19:32.595Z,12.43
2023-03-16T13:22:48.508Z,12.55
2023-03-16T13:26:04.140Z,12.21
2023-03-16T13:29:20.502Z,11.91
2023-03-16T13:32:28.528Z,11.68
2023-03-16T13:35:31.771Z,12.30
2023-03-16T13:38:34.345Z,12.37
2023-03-16T13:41:36.968Z,12.57
2023-03-16T13:44:41.220Z,12.37
2023-03-16T13:47:46.007Z,11.77
2023-03-16T13:50:52.827Z,11.29
2023-03-16T13:53:55.372Z,11.61
2023-03-16T13:57:01.209Z,11.34
2023-03-16T14:00:15.693Z,11.05
2023-03-16T14:03:22.307Z,11.48
2023-03-16T14:06:27.045Z,11.95
2023-03-16T14:09:33.171Z,12.14
2023-03-16T14:12:37.747Z,11.88
2023-03-16T14:15:40.870Z,11.70
2023-03-16T14:18:47.394Z,11.63
2023-03-16T14:21:50.062Z,11.56
2023-03-16T14:24:56.888Z,11.70
2023-03-16T14:28:01.567Z,11.86
2023-03-16T14:31:06.432Z,11.62
2023-03-16T14:34:23.617Z,11.43
2023-03-16T14:37:35.799Z,11.40
2023-03-16T14:40:40.313Z,11.25
2023-03-16T14:43:48.141Z,11.31
2023-03-16T14:46:51.121Z,10.88
2023-03-16T14:49:57.459Z,11.09
2023-03-16T14:53:00.496Z,11.10
2023-03-16T14:56:03.807Z,10.91
2023-03-16T14:59:06.783Z,10.91
2023-03-16T15:02:17.340Z,10.86
2023-03-16T15:05:26.186Z,10.50
2023-03-16T15:08:32.812Z,10.53
2023-03-16T15:11:35.288Z,10.53
2023-03-16T15:14:54.953Z,10.38
2023-03-16T15:17:57.493Z,9.99
2023-03-16T15:21:02.158Z,9.92
2023-03-16T15:24:04.761Z,10.02
2023-03-16T15:27:19.582Z,9.86
2023-03-16T15:30:25.696Z,9.57
2023-03-16T15:33:28.690Z,9.68
2023-03-16T15:36:33.027Z,9.72
2023-03-16T15:39:35.538Z,9.56
2023-03-16T15:42:38.001Z,9.49
2023-03-16T15:45:40.494Z,9.55
2023-03-16T15:48:44.346Z,9.55
2023-03-16T15:51:48.201Z,9.39
2023-03-16T15:54:51.302Z,9.06
2023-03-16T15:58:00.092Z,8.72
2023-03-16T16:01:04.791Z,8.69
2023-03-16T16:04:13.344Z,8.64
2023-03-16T16:07:17.351Z,8.51
2023-03-16T16:10:19.885Z,8.39
2023-03-16T16:13:37.573Z,8.24
2023-03-16T16:16:46.753Z,7.95
2023-03-16T16:19:49.282Z,7.80
2023-03-16T16:22:53.994Z,7.58
2023-03-16T16:26:00.756Z,7.51
2023-03-16T16:29:12.449Z,7.40
2023-03-16T16:32:23.825Z,7.24
2023-03-16T16:35:28.324Z,7.12
2023-03-16T16:38:33.102Z,7.03
2023-03-16T16:41:36.747Z,6.97
2023-03-16T16:44:39.219Z,6.82
2023-03-16T16:47:41.671Z,6.66
2023-03-16T16:50:44.140Z,6.62
2023-03-16T16:53:48.954Z,6.65
2023-03-16T16:56:54.119Z,6.62
2023-03-16T16:59:57.743Z,6.48
2023-03-16T17:03:01.035Z,6.40
2023-03-16T17:06:03.521Z,6.40
2023-03-16T17:09:08.746Z,6.48
2023-03-16T17:12:17.296Z,6.43
2023-03-16T17:15:26.470Z,6.38
2023-03-16T17:18:29.009Z,6.30
2023-03-16T17:21:32.288Z,6.23
2023-03-16T17:24:37.322Z,6.18
2023-03-16T17:27:39.920Z,6.20
2023-03-16T17:30:42.684Z,6.24
2023-03-16T17:33:45.449Z,6.27
2023-03-16T17:36:48.502Z,6.21
2023-03-16T17:39:52.385Z,6.16
2023-03-16T17:42:56.330Z,6.11
2023-03-16T17:45:59.951Z,6.05
2023-03-16T17:49:02.459Z,6.07
2023-03-16T17:52:13.256Z,6.11
2023-03-16T17:55:20.337Z,6.06
2023-03-16T17:58:27.737Z,6.10
